Time;durP1;ratioP1;P1;durP2;ratioP2;P2;SDS_P1;SDS_P2;PMS_P1;PMS_P2;Temp;Humidity;BMP_temperature;BMP_pressure;BME280_temperature;BME280_humidity;BME280_pressure;Samples;Min_cycle;Max_cycle;Signal;HPM_P1;HPM_P2
2023/06/04 00:08:35;;;;;;;1.67;0.87;;;;;;;18.86;nan;100584.47;31571727;28;20064;-75
2023/06/04 00:23:37;;;;;;;3.50;1.00;;;;;;;19.08;nan;100590.50;31600074;28;20052;-76
2023/06/04 00:38:39;;;;;;;3.07;1.57;;;;;;;18.59;nan;100597.06;31601034;28;20396;-75
2023/06/04 00:53:42;;;;;;;2.73;1.10;;;;;;;18.42;nan;100601.34;31597581;28;20059;-75
2023/06/04 01:08:44;;;;;;;2.20;1.00;;;;;;;18.26;nan;100594.16;31584537;28;20060;-75
2023/06/04 01:24:00;;;;;;;1.93;0.90;;;;;;;17.81;nan;100614.13;31590617;28;20056;-75
2023/06/04 01:39:02;;;;;;;;;;;;;;;17.60;nan;100621.25;31596087;28;20055;-75
2023/06/04 01:54:05;;;;;;;5.27;1.47;;;;;;;17.80;nan;100634.59;31601694;28;20412;-77
2023/06/04 02:09:07;;;;;;;2.27;1.10;;;;;;;17.44;nan;100637.97;31611489;28;20051;-75
2023/06/04 02:24:09;;;;;;;4.40;1.30;;;;;;;17.70;nan;100655.78;31580911;28;20515;-76
2023/06/04 02:39:11;;;;;;;2.73;1.17;;;;;;;17.65;nan;100672.06;31616334;28;20118;-77
2023/06/04 02:54:13;;;;;;;3.30;2.10;;;;;;;17.93;nan;100683.91;31617690;28;20043;-76
2023/06/04 03:09:15;;;;;;;2.47;1.37;;;;;;;18.12;nan;100701.19;31606432;28;20055;-76
2023/06/04 03:24:17;;;;;;;4.63;1.50;;;;;;;18.13;nan;100700.72;31611809;28;20431;-76
2023/06/04 03:39:19;;;;;;;1.77;1.10;;;;;;;18.42;nan;100710.53;31582649;28;20052;-76
2023/06/04 03:54:22;;;;;;;2.00;1.07;;;;;;;18.92;nan;100720.13;31586322;28;20413;-76
2023/06/04 04:09:24;;;;;;;2.97;0.90;;;;;;;19.66;nan;100735.25;31609952;28;20513;-77
2023/06/04 04:24:27;;;;;;;1.90;1.03;;;;;;;19.77;nan;100757.56;31594649;28;20048;-78
2023/06/04 04:39:29;;;;;;;4.80;0.90;;;;;;;20.63;nan;100752.16;31606157;28;20409;-76
2023/06/04 04:54:31;;;;;;;17.20;7.60;;;;;;;21.04;nan;100778.03;31573266;28;20048;-77
2023/06/04 05:09:33;;;;;;;3.87;0.97;;;;;;;21.01;nan;100789.25;31564515;28;20051;-83
2023/06/04 05:24:35;;;;;;;2.30;0.90;;;;;;;21.84;nan;100778.88;31577755;28;20436;-83
2023/06/04 05:39:37;;;;;;;2.05;0.80;;;;;;;22.17;nan;100784.16;31500800;28;20055;-83
2023/06/04 05:54:39;;;;;;;4.10;1.47;;;;;;;22.21;nan;100770.13;31508757;28;20052;-82
2023/06/04 06:09:42;;;;;;;5.03;0.70;;;;;;;22.52;nan;100763.97;31509233;28;20044;-82
2023/06/04 06:24:45;;;;;;;3.50;1.25;;;;;;;23.27;nan;100766.56;31507776;28;20063;-82
2023/06/04 06:39:47;;;;;;;2.63;1.30;;;;;;;23.68;nan;100774.72;31612002;28;20048;-83
2023/06/04 06:54:49;;;;;;;3.25;0.93;;;;;;;23.66;nan;100768.91;31637343;28;20056;-82
2023/06/04 07:09:51;;;;;;;2.50;0.77;;;;;;;23.91;nan;100787.47;31609387;28;20059;-83
2023/06/04 07:24:53;;;;;;;2.33;0.90;;;;;;;24.64;nan;100796.19;31624309;28;20082;-84
2023/06/04 07:39:55;;;;;;;2.65;0.85;;;;;;;24.85;nan;100797.53;31642759;28;20131;-80
2023/06/04 07:54:58;;;;;;;3.75;0.60;;;;;;;25.79;nan;100798.94;31616139;28;20065;-84
2023/06/04 08:10:00;;;;;;;0.98;0.65;;;;;;;26.30;nan;100785.69;31673763;28;20052;-81
2023/06/04 08:25:04;;;;;;;1.10;0.60;;;;;;;26.83;nan;100776.84;31605536;28;20070;-87
2023/06/04 08:40:08;;;;;;;2.53;0.55;;;;;;;27.23;nan;100790.56;31586463;28;20052;-83
2023/06/04 08:55:14;;;;;;;1.55;0.55;;;;;;;27.38;nan;100788.19;31590316;28;20051;-80
2023/06/04 09:10:21;;;;;;;7.47;4.45;;;;;;;27.78;nan;100800.53;31591963;28;20055;-77
2023/06/04 09:25:25;;;;;;;0.82;0.40;;;;;;;28.64;nan;100778.25;31610128;28;20060;-84
2023/06/04 09:40:37;;;;;;;1.60;0.60;;;;;;;29.01;nan;100763.53;31628860;28;20040;-81
2023/06/04 09:55:40;;;;;;;;;;;;;;;29.77;nan;100755.66;31599697;28;20563;-84
2023/06/04 10:10:43;;;;;;;1.80;0.50;;;;;;;30.18;nan;100761.53;31596549;28;20381;-85
2023/06/04 10:25:54;;;;;;;1.13;0.40;;;;;;;31.07;nan;100741.25;31633248;28;20060;-85
2023/06/04 10:40:56;;;;;;;2.63;0.97;;;;;;;30.62;nan;100731.09;31628548;28;20439;-81
2023/06/04 10:55:59;;;;;;;0.90;0.43;;;;;;;31.25;nan;100739.56;31662186;28;20127;-90
2023/06/04 11:11:11;;;;;;;2.90;1.73;;;;;;;30.95;nan;100745.59;31634177;28;20481;-79
2023/06/04 11:26:13;;;;;;;4.57;0.85;;;;;;;28.86;nan;100738.09;31593035;28;20060;-77
2023/06/04 11:41:17;;;;;;;0.85;0.50;;;;;;;28.07;nan;100732.75;31585602;28;20044;-75
2023/06/04 11:56:19;;;;;;;2.13;0.67;;;;;;;27.67;nan;100739.25;31592472;28;20078;-78
2023/06/04 12:11:31;;;;;;;1.60;0.70;;;;;;;27.27;nan;100724.16;31599209;28;20075;-76
2023/06/04 12:26:37;;;;;;;7.68;1.90;;;;;;;27.01;nan;100707.88;31607105;28;20052;-76
2023/06/04 12:41:45;;;;;;;1.25;0.60;;;;;;;26.86;nan;100713.03;31575166;28;20055;-77
2023/06/04 12:56:48;;;;;;;3.33;0.90;;;;;;;26.67;nan;100710.88;31600800;28;20106;-78
2023/06/04 13:11:50;;;;;;;3.83;0.70;;;;;;;26.57;nan;100706.88;31569289;28;20048;-80
2023/06/04 13:26:52;;;;;;;1.63;0.73;;;;;;;26.54;nan;100698.81;31570160;28;20060;-77
2023/06/04 13:41:55;;;;;;;1.67;0.75;;;;;;;26.57;nan;100704.09;31598693;28;20051;-78
2023/06/04 13:56:57;;;;;;;1.87;0.60;;;;;;;26.49;nan;100708.69;31585434;28;20063;-75
2023/06/04 14:11:59;;;;;;;3.25;1.17;;;;;;;26.47;nan;100694.53;31604048;28;20672;-73
2023/06/04 14:27:01;;;;;;;3.38;1.23;;;;;;;26.35;nan;100701.44;31623023;28;20508;-72
2023/06/04 14:42:04;;;;;;;3.20;0.93;;;;;;;26.31;nan;100700.94;31621361;28;20078;-72
2023/06/04 14:57:07;;;;;;;2.40;1.02;;;;;;;26.17;nan;100703.53;31617542;28;20513;-72
2023/06/04 15:12:09;;;;;;;2.90;0.60;;;;;;;25.91;nan;100700.31;31616004;28;20048;-73
2023/06/04 15:27:11;;;;;;;0.95;0.55;;;;;;;25.62;nan;100700.88;31612182;28;20477;-75
2023/06/04 15:42:13;;;;;;;2.65;0.88;;;;;;;25.79;nan;100715.50;31613343;28;20116;-72
2023/06/04 15:57:15;;;;;;;25.02;11.35;;;;;;;25.39;nan;100709.25;31614356;28;20117;-71
2023/06/04 16:12:17;;;;;;;3.70;1.27;;;;;;;25.54;nan;100705.41;31610804;28;20079;-71
2023/06/04 16:27:19;;;;;;;1.92;1.20;;;;;;;25.38;nan;100716.06;31592535;28;20071;-71
2023/06/04 16:42:24;;;;;;;1.80;1.00;;;;;;;25.17;nan;100700.91;31606010;28;20044;-71
2023/06/04 16:57:26;;;;;;;3.63;1.20;;;;;;;25.02;nan;100695.63;31604249;28;20048;-73
2023/06/04 17:12:28;;;;;;;3.97;1.10;;;;;;;25.43;nan;100701.41;31603347;28;20045;-73
2023/06/04 17:27:30;;;;;;;3.28;1.30;;;;;;;25.22;nan;100702.94;31587630;28;20105;-73
2023/06/04 17:42:32;;;;;;;6.80;2.50;;;;;;;24.88;nan;100718.03;31612884;28;20055;-73
2023/06/04 17:57:35;;;;;;;5.25;2.30;;;;;;;24.50;nan;100739.66;31646064;28;20079;-70
2023/06/04 18:12:37;;;;;;;8.80;2.45;;;;;;;24.14;nan;100750.31;31596768;28;20079;-72
2023/06/04 18:27:40;;;;;;;23.13;7.50;;;;;;;23.88;nan;100765.53;31609891;28;20052;-73
2023/06/04 18:42:42;;;;;;;6.18;2.30;;;;;;;23.51;nan;100769.03;31610845;28;20071;-71
2023/06/04 18:57:45;;;;;;;5.47;2.03;;;;;;;23.27;nan;100777.63;31579585;28;20052;-73
2023/06/04 19:12:47;;;;;;;4.30;2.10;;;;;;;22.97;nan;100776.31;31583953;28;20052;-73
2023/06/04 19:27:53;;;;;;;5.57;1.95;;;;;;;22.63;nan;100778.72;31610701;28;20059;-72
2023/06/04 19:42:57;;;;;;;5.93;1.70;;;;;;;22.35;nan;100772.06;31586067;28;20693;-73
2023/06/04 19:58:00;;;;;;;4.77;2.07;;;;;;;22.13;nan;100782.84;31596255;28;20059;-72
2023/06/04 20:13:02;;;;;;;4.00;1.55;;;;;;;21.80;nan;100789.38;31592387;28;20052;-74
2023/06/04 20:28:04;;;;;;;4.40;1.67;;;;;;;21.61;nan;100788.06;31590296;28;20064;-72
2023/06/04 20:43:06;;;;;;;5.17;1.57;;;;;;;21.35;nan;100788.63;31571539;28;20075;-73
2023/06/04 20:58:08;;;;;;;4.47;1.00;;;;;;;21.23;nan;100786.94;31571937;28;20060;-72
2023/06/04 21:13:10;;;;;;;4.47;1.20;;;;;;;20.95;nan;100788.41;31564662;28;20460;-71
2023/06/04 21:28:12;;;;;;;2.03;1.23;;;;;;;20.68;nan;100789.38;31558794;28;20137;-71
2023/06/04 21:43:15;;;;;;;1.97;1.23;;;;;;;20.58;nan;100799.69;31547869;28;20048;-72
2023/06/04 21:58:19;;;;;;;3.63;1.47;;;;;;;20.24;nan;100819.50;31571264;28;20060;-71
2023/06/04 22:13:21;;;;;;;3.93;2.03;;;;;;;20.07;nan;100821.88;31555022;28;20493;-73
2023/06/04 22:28:23;;;;;;;5.67;1.53;;;;;;;20.06;nan;100821.13;31597496;28;20153;-71
2023/06/04 22:43:25;;;;;;;2.27;1.20;;;;;;;20.17;nan;100841.88;31596032;28;20052;-72
2023/06/04 22:58:28;;;;;;;6.47;1.50;;;;;;;19.88;nan;100842.47;31614456;28;20454;-72
2023/06/04 23:13:30;;;;;;;2.83;1.20;;;;;;;20.02;nan;100848.09;31589005;28;20413;-73
2023/06/04 23:28:32;;;;;;;7.83;1.70;;;;;;;19.70;nan;100854.31;31579327;28;20056;-72
2023/06/04 23:43:34;;;;;;;3.77;1.60;;;;;;;19.38;nan;100856.47;31607168;28;20452;-71
2023/06/04 23:58:36;;;;;;;3.80;1.80;;;;;;;19.34;nan;100846.84;31600548;28;20423;-72
